Pagina principală
METAR-TAF:

METAR-TAF

Aeroporturi :

Hugoton, Kansas, Statele Unite ale Americii

Latitudine: 37-09-47N, longitudine: 101-22-14W, elevație: 955 m

Observații meteo curente

Raportul a fost făcut în urmă cu 12 ore și 26 de minute, la 17:35 UTC
Vânt 12 kt de la Est/Nord-est cu rafale de până la 17 kt
Temperatură 29°C
Umiditate 33%
Presiune 1013 hPa
Vizibilitate: 16.1 km
Cer senin

METAR: KHQG 181735Z AUTO 07012G17KT 10SM CLR 29/11 A2991 RMK AO2 T02850107 PWINO

Ora: 01:01 (06:01 UTC)


TAF: lipsă

Observații și prognoze meteo pentru peste 4.000 de aeroporturi (rapoarte METAR și TAF).

Stațiile disponibile sunt reprezentate pe hartă prin puncte galbene și roșii.

Țineți indicatorul mouse-ului pe punctul dorit pentru a vedea denumirea stației.

Apoi, faceți clic pentru a vedea observațiile și prognozele meteorologice.

Pentru a schimba harta: Pentru mărire, faceți clic pe butoanele verzi cu cruce neagră; pentru micșorare, pe butonul verde cu o liniuță; pentru hărți învecinate, pe săgețile verzi.


METAR-TAF: